Pleasant Point, Maine
Current Conditions -  °F | °C
As of 5:00 PM on Wednesday 22 Oct 2014 (Local Time) from CYSJ Reporting Station
Light Rain Light Rain  
Wind Chill: 36°   Ceiling: 1800
Heat Index: 45°   Visibility: 6mi
Dew Point: 45°   Wind: 23mph
Humidity: 100%   Direction: 20°NNE
Pressure: 30.21"   Gusts: 33mph
Location:  44.9831°N, 67.1057°W
Report Text: CYSJ 222100Z 02020G29KT 6SM -RA BR BKN018 OVC026 07/07 A3021 RMK SF7SC1 SLP232
Loading
Personal Weather Stations






























Interactive Weather Map
Tropical Storm Tracking
New forecast layout! Learn more

10-Day Weather Forecast

Advertisements
Track Severe Weather on mobile